Hauptseite
METAR-TAF:

METAR-TAF

Flughäfen :

Bohrplattform

J6-a, Niederlande

Breite: 53-49-27N, Länge: 2-56-43E, Höhe: 34 m

Beobachtung

Neuester Wetterbericht von vor 18 Minuten, um 16:25 UTC
Wind 24 kt aus West
Temperatur 6°C
Luftfeuchtigkeit 75%
Luftdruck 992 hPa
Sichtweite 10 km oder mehr

METAR: EHJA 251625Z AUTO 26024KT 9999 FEW018/// SCT037/// 06/02 Q0992

Zeit: 17:43 (16:43 UTC)


TAF: fehlend

Wetterbeobachtungen und Prognosen von mehr als 4000 Flughäfen (METAR und TAF Bericht).

Die verfügbaren Stationen werden durch gelbe und rote Markierungen auf der Karte dargestellt.

Führen Sie die Maus auf sie, um den Namen der Station zu sehen.

Darauf klicken, um die Beobachtung von Wetterbeobachtungen und Prognosen zu sehen.

Um die Karte zu ändern : klicken Sie auf den grünen Tasten mit einem schwarzen Kreuz Zum Vergrößern, auf den grünen Button mit einem Gedankenstrich zu verkleinern, oder auf die grünen Pfeile für benachbarte Karten.


METAR-TAF: